sensor_id;sensor_type;location;lat;lon;timestamp;P1;durP1;ratioP1;P2;durP2;ratioP2
12635;SDS011;6383;50.830;7.210;2023-03-20T00:02:05;29.27;;;24.88;;
12635;SDS011;6383;50.830;7.210;2023-03-20T00:04:35;32.03;;;25.40;;
12635;SDS011;6383;50.830;7.210;2023-03-20T00:07:05;29.02;;;25.88;;
12635;SDS011;6383;50.830;7.210;2023-03-20T00:09:37;36.28;;;28.95;;
12635;SDS011;6383;50.830;7.210;2023-03-20T00:12:05;40.78;;;30.38;;
12635;SDS011;6383;50.830;7.210;2023-03-20T00:14:33;38.55;;;32.83;;
12635;SDS011;6383;50.830;7.210;2023-03-20T00:17:01;36.35;;;30.92;;
12635;SDS011;6383;50.830;7.210;2023-03-20T00:19:39;35.03;;;30.25;;
12635;SDS011;6383;50.830;7.210;2023-03-20T00:22:07;30.98;;;27.67;;
12635;SDS011;6383;50.830;7.210;2023-03-20T00:24:35;34.03;;;29.65;;
12635;SDS011;6383;50.830;7.210;2023-03-20T00:27:03;32.00;;;28.02;;
12635;SDS011;6383;50.830;7.210;2023-03-20T00:29:31;41.35;;;30.27;;
12635;SDS011;6383;50.830;7.210;2023-03-20T00:31:59;34.65;;;29.30;;
12635;SDS011;6383;50.830;7.210;2023-03-20T00:34:28;39.17;;;30.35;;
12635;SDS011;6383;50.830;7.210;2023-03-20T00:36:57;34.08;;;28.40;;
12635;SDS011;6383;50.830;7.210;2023-03-20T00:39:25;31.73;;;28.38;;
12635;SDS011;6383;50.830;7.210;2023-03-20T00:41:53;30.00;;;26.90;;
12635;SDS011;6383;50.830;7.210;2023-03-20T00:44:25;31.42;;;27.80;;
12635;SDS011;6383;50.830;7.210;2023-03-20T00:46:57;29.38;;;25.75;;
12635;SDS011;6383;50.830;7.210;2023-03-20T00:49:29;32.30;;;27.88;;
12635;SDS011;6383;50.830;7.210;2023-03-20T00:51:59;30.50;;;27.35;;
12635;SDS011;6383;50.830;7.210;2023-03-20T00:54:27;35.63;;;29.02;;
12635;SDS011;6383;50.830;7.210;2023-03-20T00:56:58;31.02;;;26.00;;
12635;SDS011;6383;50.830;7.210;2023-03-20T00:59:29;32.38;;;28.42;;
12635;SDS011;6383;50.830;7.210;2023-03-20T01:02:00;31.98;;;27.75;;
12635;SDS011;6383;50.830;7.210;2023-03-20T01:04:33;32.22;;;27.63;;
12635;SDS011;6383;50.830;7.210;2023-03-20T01:07:04;38.13;;;26.73;;
12635;SDS011;6383;50.830;7.210;2023-03-20T01:09:35;30.33;;;27.02;;
12635;SDS011;6383;50.830;7.210;2023-03-20T01:12:03;30.27;;;26.35;;
12635;SDS011;6383;50.830;7.210;2023-03-20T01:14:33;32.50;;;28.67;;
12635;SDS011;6383;50.830;7.210;2023-03-20T01:17:01;31.08;;;27.60;;
12635;SDS011;6383;50.830;7.210;2023-03-20T01:19:32;30.55;;;27.30;;
12635;SDS011;6383;50.830;7.210;2023-03-20T01:22:00;29.63;;;26.50;;
12635;SDS011;6383;50.830;7.210;2023-03-20T01:24:29;31.13;;;28.00;;
12635;SDS011;6383;50.830;7.210;2023-03-20T01:26:58;34.30;;;28.90;;
12635;SDS011;6383;50.830;7.210;2023-03-20T01:29:30;30.67;;;27.38;;
12635;SDS011;6383;50.830;7.210;2023-03-20T01:31:58;33.60;;;29.10;;
12635;SDS011;6383;50.830;7.210;2023-03-20T01:34:27;32.47;;;27.25;;
12635;SDS011;6383;50.830;7.210;2023-03-20T01:36:56;34.38;;;28.42;;
12635;SDS011;6383;50.830;7.210;2023-03-20T01:39:27;35.25;;;29.38;;
12635;SDS011;6383;50.830;7.210;2023-03-20T01:41:58;37.08;;;29.85;;
12635;SDS011;6383;50.830;7.210;2023-03-20T01:44:28;35.65;;;29.73;;
12635;SDS011;6383;50.830;7.210;2023-03-20T01:46:58;35.75;;;30.95;;
12635;SDS011;6383;50.830;7.210;2023-03-20T01:52:35;40.35;;;31.25;;
12635;SDS011;6383;50.830;7.210;2023-03-20T01:55:04;37.72;;;32.33;;
12635;SDS011;6383;50.830;7.210;2023-03-20T01:57:33;39.90;;;30.88;;
12635;SDS011;6383;50.830;7.210;2023-03-20T02:00:03;33.13;;;28.45;;
12635;SDS011;6383;50.830;7.210;2023-03-20T02:02:34;32.88;;;29.08;;
12635;SDS011;6383;50.830;7.210;2023-03-20T02:05:06;32.30;;;27.98;;
12635;SDS011;6383;50.830;7.210;2023-03-20T02:07:37;35.25;;;28.48;;
12635;SDS011;6383;50.830;7.210;2023-03-20T02:10:07;35.28;;;30.02;;
12635;SDS011;6383;50.830;7.210;2023-03-20T02:12:38;36.63;;;30.55;;
12635;SDS011;6383;50.830;7.210;2023-03-20T02:15:09;38.47;;;31.80;;
12635;SDS011;6383;50.830;7.210;2023-03-20T02:17:40;39.88;;;32.53;;
12635;SDS011;6383;50.830;7.210;2023-03-20T02:20:11;37.55;;;31.88;;
12635;SDS011;6383;50.830;7.210;2023-03-20T02:39:12;32.63;;;28.45;;
12635;SDS011;6383;50.830;7.210;2023-03-20T02:42:03;32.20;;;28.00;;
12635;SDS011;6383;50.830;7.210;2023-03-20T02:44:39;36.15;;;29.17;;
12635;SDS011;6383;50.830;7.210;2023-03-20T02:47:14;34.88;;;29.55;;
12635;SDS011;6383;50.830;7.210;2023-03-20T02:49:49;34.42;;;28.63;;
12635;SDS011;6383;50.830;7.210;2023-03-20T02:52:24;32.53;;;27.75;;
12635;SDS011;6383;50.830;7.210;2023-03-20T02:55:03;37.28;;;28.83;;
12635;SDS011;6383;50.830;7.210;2023-03-20T02:57:44;34.92;;;28.38;;
12635;SDS011;6383;50.830;7.210;2023-03-20T03:00:21;37.47;;;28.58;;
12635;SDS011;6383;50.830;7.210;2023-03-20T03:02:56;33.80;;;28.85;;
12635;SDS011;6383;50.830;7.210;2023-03-20T03:05:34;34.97;;;27.30;;
12635;SDS011;6383;50.830;7.210;2023-03-20T03:08:05;29.80;;;26.00;;
12635;SDS011;6383;50.830;7.210;2023-03-20T03:10:40;31.42;;;25.17;;
12635;SDS011;6383;50.830;7.210;2023-03-20T03:13:11;32.10;;;26.58;;
12635;SDS011;6383;50.830;7.210;2023-03-20T03:15:43;35.40;;;27.27;;
12635;SDS011;6383;50.830;7.210;2023-03-20T03:18:15;32.17;;;25.98;;
12635;SDS011;6383;50.830;7.210;2023-03-20T03:20:47;34.75;;;25.92;;
12635;SDS011;6383;50.830;7.210;2023-03-20T03:23:21;30.02;;;24.75;;
12635;SDS011;6383;50.830;7.210;2023-03-20T03:25:55;33.72;;;25.77;;
12635;SDS011;6383;50.830;7.210;2023-03-20T03:28:28;33.30;;;27.08;;
12635;SDS011;6383;50.830;7.210;2023-03-20T03:31:02;34.63;;;25.85;;
12635;SDS011;6383;50.830;7.210;2023-03-20T03:33:35;28.27;;;24.42;;
12635;SDS011;6383;50.830;7.210;2023-03-20T03:36:08;31.08;;;25.70;;
12635;SDS011;6383;50.830;7.210;2023-03-20T03:38:45;28.70;;;23.67;;
12635;SDS011;6383;50.830;7.210;2023-03-20T03:41:24;29.98;;;23.30;;
12635;SDS011;6383;50.830;7.210;2023-03-20T03:43:59;25.77;;;22.98;;
12635;SDS011;6383;50.830;7.210;2023-03-20T03:46:35;25.75;;;22.25;;
12635;SDS011;6383;50.830;7.210;2023-03-20T03:49:08;25.73;;;22.13;;
12635;SDS011;6383;50.830;7.210;2023-03-20T03:51:41;27.55;;;21.80;;
12635;SDS011;6383;50.830;7.210;2023-03-20T03:54:14;23.90;;;20.48;;
12635;SDS011;6383;50.830;7.210;2023-03-20T03:56:46;29.90;;;22.83;;
12635;SDS011;6383;50.830;7.210;2023-03-20T03:59:19;29.30;;;23.92;;
12635;SDS011;6383;50.830;7.210;2023-03-20T04:01:51;29.98;;;22.73;;
12635;SDS011;6383;50.830;7.210;2023-03-20T04:04:21;30.55;;;22.95;;
12635;SDS011;6383;50.830;7.210;2023-03-20T04:06:52;30.15;;;23.55;;
12635;SDS011;6383;50.830;7.210;2023-03-20T04:09:21;28.15;;;23.70;;
12635;SDS011;6383;50.830;7.210;2023-03-20T04:11:51;31.77;;;24.80;;
12635;SDS011;6383;50.830;7.210;2023-03-20T04:14:21;33.25;;;27.20;;
12635;SDS011;6383;50.830;7.210;2023-03-20T04:16:49;31.45;;;26.45;;
12635;SDS011;6383;50.830;7.210;2023-03-20T04:19:16;30.23;;;24.40;;
12635;SDS011;6383;50.830;7.210;2023-03-20T04:21:45;29.77;;;24.25;;
12635;SDS011;6383;50.830;7.210;2023-03-20T04:24:13;37.22;;;27.58;;
12635;SDS011;6383;50.830;7.210;2023-03-20T04:26:42;33.38;;;25.85;;
12635;SDS011;6383;50.830;7.210;2023-03-20T04:29:11;28.63;;;22.77;;
12635;SDS011;6383;50.830;7.210;2023-03-20T04:31:40;30.90;;;24.15;;
12635;SDS011;6383;50.830;7.210;2023-03-20T04:34:08;31.10;;;24.92;;
12635;SDS011;6383;50.830;7.210;2023-03-20T04:36:38;34.33;;;24.42;;
12635;SDS011;6383;50.830;7.210;2023-03-20T04:39:06;34.25;;;25.15;;
12635;SDS011;6383;50.830;7.210;2023-03-20T04:41:33;31.42;;;24.00;;
12635;SDS011;6383;50.830;7.210;2023-03-20T04:44:02;29.95;;;23.15;;
12635;SDS011;6383;50.830;7.210;2023-03-20T04:46:30;31.55;;;23.58;;
12635;SDS011;6383;50.830;7.210;2023-03-20T04:48:59;28.25;;;23.20;;
12635;SDS011;6383;50.830;7.210;2023-03-20T04:51:28;35.78;;;23.95;;
12635;SDS011;6383;50.830;7.210;2023-03-20T04:53:56;30.27;;;22.88;;
12635;SDS011;6383;50.830;7.210;2023-03-20T04:56:25;30.73;;;23.52;;
12635;SDS011;6383;50.830;7.210;2023-03-20T04:58:53;30.23;;;23.90;;
12635;SDS011;6383;50.830;7.210;2023-03-20T05:01:21;33.58;;;25.52;;
12635;SDS011;6383;50.830;7.210;2023-03-20T05:03:52;33.60;;;23.63;;
12635;SDS011;6383;50.830;7.210;2023-03-20T05:06:27;32.33;;;25.02;;
12635;SDS011;6383;50.830;7.210;2023-03-20T05:08:56;32.25;;;23.23;;
12635;SDS011;6383;50.830;7.210;2023-03-20T05:11:26;31.15;;;24.40;;
12635;SDS011;6383;50.830;7.210;2023-03-20T05:13:56;37.08;;;26.30;;
12635;SDS011;6383;50.830;7.210;2023-03-20T05:16:23;34.30;;;26.67;;
12635;SDS011;6383;50.830;7.210;2023-03-20T05:18:52;37.33;;;27.52;;
12635;SDS011;6383;50.830;7.210;2023-03-20T05:21:21;39.13;;;29.00;;
12635;SDS011;6383;50.830;7.210;2023-03-20T05:23:49;38.88;;;28.40;;
12635;SDS011;6383;50.830;7.210;2023-03-20T05:26:18;44.83;;;29.00;;
12635;SDS011;6383;50.830;7.210;2023-03-20T05:28:46;41.90;;;28.70;;
12635;SDS011;6383;50.830;7.210;2023-03-20T05:31:15;41.38;;;30.27;;
12635;SDS011;6383;50.830;7.210;2023-03-20T05:33:44;39.70;;;28.63;;
12635;SDS011;6383;50.830;7.210;2023-03-20T05:36:14;43.40;;;28.95;;
12635;SDS011;6383;50.830;7.210;2023-03-20T05:38:42;42.85;;;29.13;;
12635;SDS011;6383;50.830;7.210;2023-03-20T05:41:10;41.97;;;29.13;;
12635;SDS011;6383;50.830;7.210;2023-03-20T05:43:39;39.25;;;28.45;;
12635;SDS011;6383;50.830;7.210;2023-03-20T05:46:08;39.50;;;26.73;;
12635;SDS011;6383;50.830;7.210;2023-03-20T05:48:36;38.17;;;27.88;;
12635;SDS011;6383;50.830;7.210;2023-03-20T05:51:05;36.67;;;26.92;;
12635;SDS011;6383;50.830;7.210;2023-03-20T05:53:36;37.47;;;27.20;;
12635;SDS011;6383;50.830;7.210;2023-03-20T05:56:05;38.50;;;28.02;;
12635;SDS011;6383;50.830;7.210;2023-03-20T05:58:33;45.40;;;29.73;;
12635;SDS011;6383;50.830;7.210;2023-03-20T06:01:03;41.00;;;27.67;;
12635;SDS011;6383;50.830;7.210;2023-03-20T06:03:32;42.00;;;28.83;;
12635;SDS011;6383;50.830;7.210;2023-03-20T06:06:00;36.50;;;27.35;;
12635;SDS011;6383;50.830;7.210;2023-03-20T06:08:29;38.63;;;26.83;;
12635;SDS011;6383;50.830;7.210;2023-03-20T06:10:58;38.53;;;27.55;;
12635;SDS011;6383;50.830;7.210;2023-03-20T06:13:26;36.85;;;25.70;;
12635;SDS011;6383;50.830;7.210;2023-03-20T06:15:56;40.47;;;26.92;;
12635;SDS011;6383;50.830;7.210;2023-03-20T06:18:23;38.55;;;27.85;;
12635;SDS011;6383;50.830;7.210;2023-03-20T06:20:51;41.35;;;26.38;;
12635;SDS011;6383;50.830;7.210;2023-03-20T06:23:20;37.03;;;26.48;;
12635;SDS011;6383;50.830;7.210;2023-03-20T06:25:48;36.78;;;26.23;;
12635;SDS011;6383;50.830;7.210;2023-03-20T06:28:18;37.88;;;25.67;;
12635;SDS011;6383;50.830;7.210;2023-03-20T06:30:49;42.30;;;26.95;;
12635;SDS011;6383;50.830;7.210;2023-03-20T06:33:19;39.78;;;25.00;;
12635;SDS011;6383;50.830;7.210;2023-03-20T06:35:48;37.75;;;26.67;;
12635;SDS011;6383;50.830;7.210;2023-03-20T06:38:16;32.97;;;25.10;;
12635;SDS011;6383;50.830;7.210;2023-03-20T06:40:43;33.22;;;26.10;;
12635;SDS011;6383;50.830;7.210;2023-03-20T06:43:12;43.13;;;30.02;;
12635;SDS011;6383;50.830;7.210;2023-03-20T06:45:43;44.92;;;30.55;;
12635;SDS011;6383;50.830;7.210;2023-03-20T06:48:12;40.97;;;29.20;;
12635;SDS011;6383;50.830;7.210;2023-03-20T06:50:40;39.30;;;28.00;;
12635;SDS011;6383;50.830;7.210;2023-03-20T06:53:09;41.90;;;27.63;;
12635;SDS011;6383;50.830;7.210;2023-03-20T06:55:36;38.90;;;27.45;;
12635;SDS011;6383;50.830;7.210;2023-03-20T06:58:05;39.40;;;27.00;;
12635;SDS011;6383;50.830;7.210;2023-03-20T07:00:34;35.25;;;25.65;;
12635;SDS011;6383;50.830;7.210;2023-03-20T07:03:04;35.10;;;25.35;;
12635;SDS011;6383;50.830;7.210;2023-03-20T07:05:32;33.70;;;24.85;;
12635;SDS011;6383;50.830;7.210;2023-03-20T07:08:01;34.78;;;23.45;;
12635;SDS011;6383;50.830;7.210;2023-03-20T07:10:30;32.92;;;24.80;;
12635;SDS011;6383;50.830;7.210;2023-03-20T07:12:59;32.35;;;23.80;;
12635;SDS011;6383;50.830;7.210;2023-03-20T07:15:28;32.58;;;23.50;;
12635;SDS011;6383;50.830;7.210;2023-03-20T07:17:57;26.38;;;21.48;;
12635;SDS011;6383;50.830;7.210;2023-03-20T07:20:26;23.70;;;19.92;;
12635;SDS011;6383;50.830;7.210;2023-03-20T07:22:54;25.52;;;20.73;;
12635;SDS011;6383;50.830;7.210;2023-03-20T07:25:23;31.15;;;22.17;;
12635;SDS011;6383;50.830;7.210;2023-03-20T07:27:52;23.77;;;20.77;;
12635;SDS011;6383;50.830;7.210;2023-03-20T07:30:20;27.00;;;19.77;;
12635;SDS011;6383;50.830;7.210;2023-03-20T07:32:48;24.83;;;20.45;;
12635;SDS011;6383;50.830;7.210;2023-03-20T07:35:17;26.38;;;20.38;;
12635;SDS011;6383;50.830;7.210;2023-03-20T07:37:48;28.25;;;21.02;;
12635;SDS011;6383;50.830;7.210;2023-03-20T07:40:17;25.90;;;20.80;;
12635;SDS011;6383;50.830;7.210;2023-03-20T07:42:47;23.90;;;19.27;;
12635;SDS011;6383;50.830;7.210;2023-03-20T07:45:16;26.33;;;20.00;;
12635;SDS011;6383;50.830;7.210;2023-03-20T07:47:45;27.92;;;18.95;;
12635;SDS011;6383;50.830;7.210;2023-03-20T07:50:13;22.05;;;17.40;;
12635;SDS011;6383;50.830;7.210;2023-03-20T07:52:44;19.10;;;16.67;;
12635;SDS011;6383;50.830;7.210;2023-03-20T07:55:15;16.98;;;15.30;;
12635;SDS011;6383;50.830;7.210;2023-03-20T07:57:45;20.45;;;14.68;;
12635;SDS011;6383;50.830;7.210;2023-03-20T08:00:16;19.77;;;14.80;;
12635;SDS011;6383;50.830;7.210;2023-03-20T08:02:44;18.50;;;15.75;;
12635;SDS011;6383;50.830;7.210;2023-03-20T08:05:13;18.52;;;15.27;;
12635;SDS011;6383;50.830;7.210;2023-03-20T08:07:42;15.23;;;13.63;;
12635;SDS011;6383;50.830;7.210;2023-03-20T08:10:11;21.48;;;15.45;;
12635;SDS011;6383;50.830;7.210;2023-03-20T08:12:41;15.48;;;13.88;;
12635;SDS011;6383;50.830;7.210;2023-03-20T08:15:10;15.07;;;13.48;;
12635;SDS011;6383;50.830;7.210;2023-03-20T08:17:40;14.73;;;13.02;;
12635;SDS011;6383;50.830;7.210;2023-03-20T08:20:10;16.95;;;12.95;;
12635;SDS011;6383;50.830;7.210;2023-03-20T08:22:39;14.45;;;12.25;;
12635;SDS011;6383;50.830;7.210;2023-03-20T08:25:08;17.15;;;12.35;;
12635;SDS011;6383;50.830;7.210;2023-03-20T08:27:37;13.27;;;11.70;;
12635;SDS011;6383;50.830;7.210;2023-03-20T08:30:08;13.73;;;11.48;;
12635;SDS011;6383;50.830;7.210;2023-03-20T08:32:38;12.00;;;10.20;;
12635;SDS011;6383;50.830;7.210;2023-03-20T08:35:06;14.00;;;10.10;;
12635;SDS011;6383;50.830;7.210;2023-03-20T08:37:36;10.63;;;8.02;;
12635;SDS011;6383;50.830;7.210;2023-03-20T08:40:04;12.27;;;7.43;;
12635;SDS011;6383;50.830;7.210;2023-03-20T08:42:32;18.08;;;7.25;;
12635;SDS011;6383;50.830;7.210;2023-03-20T08:45:01;10.95;;;7.13;;
12635;SDS011;6383;50.830;7.210;2023-03-20T08:47:30;11.70;;;6.78;;
12635;SDS011;6383;50.830;7.210;2023-03-20T08:49:58;10.07;;;6.13;;
12635;SDS011;6383;50.830;7.210;2023-03-20T08:52:27;8.30;;;6.82;;
12635;SDS011;6383;50.830;7.210;2023-03-20T08:54:55;11.70;;;6.95;;
12635;SDS011;6383;50.830;7.210;2023-03-20T08:57:24;10.43;;;7.78;;
12635;SDS011;6383;50.830;7.210;2023-03-20T08:59:53;9.63;;;8.35;;
12635;SDS011;6383;50.830;7.210;2023-03-20T09:02:22;10.75;;;7.32;;
12635;SDS011;6383;50.830;7.210;2023-03-20T09:04:53;10.65;;;8.15;;
12635;SDS011;6383;50.830;7.210;2023-03-20T09:07:22;11.60;;;7.25;;
12635;SDS011;6383;50.830;7.210;2023-03-20T09:09:49;8.05;;;6.13;;
12635;SDS011;6383;50.830;7.210;2023-03-20T09:12:17;7.22;;;4.90;;
12635;SDS011;6383;50.830;7.210;2023-03-20T09:14:46;6.28;;;4.35;;
12635;SDS011;6383;50.830;7.210;2023-03-20T09:17:15;10.32;;;5.88;;
12635;SDS011;6383;50.830;7.210;2023-03-20T09:19:44;8.38;;;5.57;;
12635;SDS011;6383;50.830;7.210;2023-03-20T09:22:14;7.00;;;5.97;;
12635;SDS011;6383;50.830;7.210;2023-03-20T09:24:44;6.53;;;5.90;;
12635;SDS011;6383;50.830;7.210;2023-03-20T09:27:12;8.25;;;5.28;;
12635;SDS011;6383;50.830;7.210;2023-03-20T09:29:41;12.50;;;5.95;;
12635;SDS011;6383;50.830;7.210;2023-03-20T09:32:11;6.50;;;5.15;;
12635;SDS011;6383;50.830;7.210;2023-03-20T09:34:40;9.10;;;6.05;;
12635;SDS011;6383;50.830;7.210;2023-03-20T09:37:08;7.72;;;5.55;;
12635;SDS011;6383;50.830;7.210;2023-03-20T09:39:39;9.20;;;6.25;;
12635;SDS011;6383;50.830;7.210;2023-03-20T09:42:09;8.10;;;6.38;;
12635;SDS011;6383;50.830;7.210;2023-03-20T09:44:53;10.80;;;6.10;;
12635;SDS011;6383;50.830;7.210;2023-03-20T09:47:31;10.43;;;5.75;;
12635;SDS011;6383;50.830;7.210;2023-03-20T09:50:10;12.63;;;5.90;;
12635;SDS011;6383;50.830;7.210;2023-03-20T09:52:52;10.23;;;6.43;;
12635;SDS011;6383;50.830;7.210;2023-03-20T09:55:26;7.80;;;6.40;;
12635;SDS011;6383;50.830;7.210;2023-03-20T09:58:02;9.88;;;6.50;;
12635;SDS011;6383;50.830;7.210;2023-03-20T10:00:35;11.43;;;6.03;;
12635;SDS011;6383;50.830;7.210;2023-03-20T10:03:04;10.52;;;6.15;;
12635;SDS011;6383;50.830;7.210;2023-03-20T10:05:34;8.50;;;6.00;;
12635;SDS011;6383;50.830;7.210;2023-03-20T10:08:08;9.55;;;5.68;;
12635;SDS011;6383;50.830;7.210;2023-03-20T10:10:48;7.28;;;5.07;;
12635;SDS011;6383;50.830;7.210;2023-03-20T10:13:34;6.78;;;5.50;;
12635;SDS011;6383;50.830;7.210;2023-03-20T10:16:14;6.20;;;5.60;;
12635;SDS011;6383;50.830;7.210;2023-03-20T10:18:55;7.60;;;5.95;;
12635;SDS011;6383;50.830;7.210;2023-03-20T10:21:28;6.32;;;5.13;;
12635;SDS011;6383;50.830;7.210;2023-03-20T10:24:02;7.93;;;5.13;;
12635;SDS011;6383;50.830;7.210;2023-03-20T10:26:34;5.22;;;4.70;;
12635;SDS011;6383;50.830;7.210;2023-03-20T10:29:04;7.25;;;4.93;;
12635;SDS011;6383;50.830;7.210;2023-03-20T10:31:42;7.28;;;4.90;;
12635;SDS011;6383;50.830;7.210;2023-03-20T10:34:34;8.10;;;5.53;;
12635;SDS011;6383;50.830;7.210;2023-03-20T10:37:19;9.40;;;6.10;;
12635;SDS011;6383;50.830;7.210;2023-03-20T10:40:00;7.82;;;6.00;;
12635;SDS011;6383;50.830;7.210;2023-03-20T10:42:44;6.38;;;4.68;;
12635;SDS011;6383;50.830;7.210;2023-03-20T10:45:18;5.88;;;5.38;;
12635;SDS011;6383;50.830;7.210;2023-03-20T10:47:58;8.23;;;5.10;;
12635;SDS011;6383;50.830;7.210;2023-03-20T10:50:31;8.63;;;5.78;;
12635;SDS011;6383;50.830;7.210;2023-03-20T10:53:03;7.97;;;5.25;;
12635;SDS011;6383;50.830;7.210;2023-03-20T10:55:35;8.27;;;5.38;;
12635;SDS011;6383;50.830;7.210;2023-03-20T10:58:10;8.23;;;4.63;;
12635;SDS011;6383;50.830;7.210;2023-03-20T11:00:45;7.57;;;4.53;;
12635;SDS011;6383;50.830;7.210;2023-03-20T11:03:19;6.88;;;5.47;;
12635;SDS011;6383;50.830;7.210;2023-03-20T11:05:52;7.82;;;4.88;;
12635;SDS011;6383;50.830;7.210;2023-03-20T11:08:25;6.55;;;5.28;;
12635;SDS011;6383;50.830;7.210;2023-03-20T11:11:02;10.65;;;5.72;;
12635;SDS011;6383;50.830;7.210;2023-03-20T11:13:34;6.55;;;5.28;;
12635;SDS011;6383;50.830;7.210;2023-03-20T11:16:15;11.40;;;5.43;;
12635;SDS011;6383;50.830;7.210;2023-03-20T11:18:47;7.60;;;4.95;;
12635;SDS011;6383;50.830;7.210;2023-03-20T11:21:18;6.70;;;5.20;;
12635;SDS011;6383;50.830;7.210;2023-03-20T11:23:49;8.65;;;5.88;;
12635;SDS011;6383;50.830;7.210;2023-03-20T11:26:19;6.22;;;4.88;;
12635;SDS011;6383;50.830;7.210;2023-03-20T11:29:01;11.52;;;5.88;;
12635;SDS011;6383;50.830;7.210;2023-03-20T11:31:34;16.50;;;6.65;;
12635;SDS011;6383;50.830;7.210;2023-03-20T11:34:08;10.20;;;5.45;;
12635;SDS011;6383;50.830;7.210;2023-03-20T11:36:46;7.78;;;5.45;;
12635;SDS011;6383;50.830;7.210;2023-03-20T11:39:21;8.02;;;5.70;;
12635;SDS011;6383;50.830;7.210;2023-03-20T11:41:51;7.78;;;5.47;;
12635;SDS011;6383;50.830;7.210;2023-03-20T11:44:24;8.23;;;6.35;;
12635;SDS011;6383;50.830;7.210;2023-03-20T11:46:58;9.38;;;5.70;;
12635;SDS011;6383;50.830;7.210;2023-03-20T11:49:30;7.93;;;5.60;;
12635;SDS011;6383;50.830;7.210;2023-03-20T11:51:59;9.15;;;5.88;;
12635;SDS011;6383;50.830;7.210;2023-03-20T11:54:29;9.48;;;6.15;;
12635;SDS011;6383;50.830;7.210;2023-03-20T11:56:58;11.30;;;6.18;;
12635;SDS011;6383;50.830;7.210;2023-03-20T11:59:30;7.20;;;5.70;;
12635;SDS011;6383;50.830;7.210;2023-03-20T12:02:00;9.18;;;5.93;;
12635;SDS011;6383;50.830;7.210;2023-03-20T12:04:30;6.95;;;5.60;;
12635;SDS011;6383;50.830;7.210;2023-03-20T12:07:03;6.38;;;5.25;;
12635;SDS011;6383;50.830;7.210;2023-03-20T12:09:40;9.23;;;5.57;;
12635;SDS011;6383;50.830;7.210;2023-03-20T12:12:14;6.93;;;2.85;;
12635;SDS011;6383;50.830;7.210;2023-03-20T12:14:51;6.68;;;3.25;;
12635;SDS011;6383;50.830;7.210;2023-03-20T12:17:36;5.55;;;3.40;;
12635;SDS011;6383;50.830;7.210;2023-03-20T12:20:13;6.47;;;3.42;;
12635;SDS011;6383;50.830;7.210;2023-03-20T12:22:53;6.22;;;3.30;;
12635;SDS011;6383;50.830;7.210;2023-03-20T12:25:26;8.93;;;3.03;;
12635;SDS011;6383;50.830;7.210;2023-03-20T12:28:04;6.28;;;2.92;;
12635;SDS011;6383;50.830;7.210;2023-03-20T12:30:47;4.90;;;3.40;;
12635;SDS011;6383;50.830;7.210;2023-03-20T12:33:29;4.50;;;3.20;;
12635;SDS011;6383;50.830;7.210;2023-03-20T12:36:08;5.05;;;2.53;;
12635;SDS011;6383;50.830;7.210;2023-03-20T12:38:39;6.05;;;2.70;;
12635;SDS011;6383;50.830;7.210;2023-03-20T12:41:10;8.57;;;3.25;;
12635;SDS011;6383;50.830;7.210;2023-03-20T12:43:44;4.90;;;2.40;;
12635;SDS011;6383;50.830;7.210;2023-03-20T12:46:27;6.30;;;2.75;;
12635;SDS011;6383;50.830;7.210;2023-03-20T12:49:06;5.97;;;2.45;;
12635;SDS011;6383;50.830;7.210;2023-03-20T12:51:46;4.18;;;1.70;;
12635;SDS011;6383;50.830;7.210;2023-03-20T12:54:22;4.50;;;2.35;;
12635;SDS011;6383;50.830;7.210;2023-03-20T12:57:05;4.07;;;1.92;;
12635;SDS011;6383;50.830;7.210;2023-03-20T12:59:49;4.18;;;2.05;;
12635;SDS011;6383;50.830;7.210;2023-03-20T13:02:37;3.70;;;1.23;;
12635;SDS011;6383;50.830;7.210;2023-03-20T13:05:29;5.70;;;1.50;;
12635;SDS011;6383;50.830;7.210;2023-03-20T13:08:10;3.45;;;1.70;;
12635;SDS011;6383;50.830;7.210;2023-03-20T13:10:50;3.80;;;1.38;;
12635;SDS011;6383;50.830;7.210;2023-03-20T13:13:27;6.90;;;1.63;;
12635;SDS011;6383;50.830;7.210;2023-03-20T13:16:08;7.60;;;1.88;;
12635;SDS011;6383;50.830;7.210;2023-03-20T13:18:48;2.45;;;1.30;;
12635;SDS011;6383;50.830;7.210;2023-03-20T13:21:26;7.70;;;1.92;;
12635;SDS011;6383;50.830;7.210;2023-03-20T13:26:37;8.27;;;2.33;;
12635;SDS011;6383;50.830;7.210;2023-03-20T13:29:13;4.93;;;1.27;;
12635;SDS011;6383;50.830;7.210;2023-03-20T13:31:51;6.60;;;1.67;;
12635;SDS011;6383;50.830;7.210;2023-03-20T13:34:30;7.80;;;2.22;;
12635;SDS011;6383;50.830;7.210;2023-03-20T13:37:10;5.75;;;1.90;;
12635;SDS011;6383;50.830;7.210;2023-03-20T13:39:45;5.38;;;1.92;;
12635;SDS011;6383;50.830;7.210;2023-03-20T13:42:16;4.90;;;1.30;;
12635;SDS011;6383;50.830;7.210;2023-03-20T13:44:48;8.40;;;2.15;;
12635;SDS011;6383;50.830;7.210;2023-03-20T13:47:21;5.28;;;1.60;;
12635;SDS011;6383;50.830;7.210;2023-03-20T13:49:57;4.32;;;1.58;;
12635;SDS011;6383;50.830;7.210;2023-03-20T13:52:47;5.32;;;1.65;;
12635;SDS011;6383;50.830;7.210;2023-03-20T13:55:23;5.38;;;1.48;;
12635;SDS011;6383;50.830;7.210;2023-03-20T13:58:03;7.38;;;1.88;;
12635;SDS011;6383;50.830;7.210;2023-03-20T14:00:41;4.50;;;1.98;;
12635;SDS011;6383;50.830;7.210;2023-03-20T14:03:18;3.55;;;1.45;;
12635;SDS011;6383;50.830;7.210;2023-03-20T14:05:56;4.90;;;1.80;;
12635;SDS011;6383;50.830;7.210;2023-03-20T14:08:33;4.13;;;1.67;;
12635;SDS011;6383;50.830;7.210;2023-03-20T14:11:04;6.25;;;2.03;;
12635;SDS011;6383;50.830;7.210;2023-03-20T14:13:41;4.55;;;1.85;;
12635;SDS011;6383;50.830;7.210;2023-03-20T14:16:14;2.97;;;1.23;;
12635;SDS011;6383;50.830;7.210;2023-03-20T14:18:46;4.75;;;2.20;;
12635;SDS011;6383;50.830;7.210;2023-03-20T14:21:18;3.97;;;1.98;;
12635;SDS011;6383;50.830;7.210;2023-03-20T14:23:50;6.18;;;2.00;;
12635;SDS011;6383;50.830;7.210;2023-03-20T14:26:29;7.13;;;1.88;;
12635;SDS011;6383;50.830;7.210;2023-03-20T14:28:59;7.45;;;1.90;;
12635;SDS011;6383;50.830;7.210;2023-03-20T14:31:30;5.00;;;1.55;;
12635;SDS011;6383;50.830;7.210;2023-03-20T14:34:07;5.13;;;1.58;;
12635;SDS011;6383;50.830;7.210;2023-03-20T14:36:56;3.42;;;1.33;;
12635;SDS011;6383;50.830;7.210;2023-03-20T14:39:42;7.03;;;1.85;;
12635;SDS011;6383;50.830;7.210;2023-03-20T14:42:23;7.20;;;1.52;;
12635;SDS011;6383;50.830;7.210;2023-03-20T14:45:14;6.20;;;1.75;;
12635;SDS011;6383;50.830;7.210;2023-03-20T14:47:54;5.40;;;1.73;;
12635;SDS011;6383;50.830;7.210;2023-03-20T14:53:01;3.17;;;1.45;;
12635;SDS011;6383;50.830;7.210;2023-03-20T14:55:46;3.97;;;1.30;;
12635;SDS011;6383;50.830;7.210;2023-03-20T15:01:24;3.97;;;1.73;;
12635;SDS011;6383;50.830;7.210;2023-03-20T15:04:04;7.78;;;1.48;;
12635;SDS011;6383;50.830;7.210;2023-03-20T15:06:34;4.65;;;1.60;;
12635;SDS011;6383;50.830;7.210;2023-03-20T15:09:10;7.55;;;2.10;;
12635;SDS011;6383;50.830;7.210;2023-03-20T15:11:38;4.80;;;1.60;;
12635;SDS011;6383;50.830;7.210;2023-03-20T15:14:09;4.68;;;2.17;;
12635;SDS011;6383;50.830;7.210;2023-03-20T15:16:44;6.88;;;2.47;;
12635;SDS011;6383;50.830;7.210;2023-03-20T15:19:14;8.10;;;3.88;;
12635;SDS011;6383;50.830;7.210;2023-03-20T15:21:44;5.25;;;2.20;;
12635;SDS011;6383;50.830;7.210;2023-03-20T15:24:17;21.30;;;10.55;;
12635;SDS011;6383;50.830;7.210;2023-03-20T15:26:49;10.75;;;5.68;;
12635;SDS011;6383;50.830;7.210;2023-03-20T15:29:20;3.83;;;2.13;;
12635;SDS011;6383;50.830;7.210;2023-03-20T15:31:53;6.63;;;2.03;;
12635;SDS011;6383;50.830;7.210;2023-03-20T15:34:24;3.85;;;1.63;;
12635;SDS011;6383;50.830;7.210;2023-03-20T15:36:55;6.05;;;1.88;;
12635;SDS011;6383;50.830;7.210;2023-03-20T15:39:28;3.97;;;1.58;;
12635;SDS011;6383;50.830;7.210;2023-03-20T15:42:09;9.13;;;2.10;;
12635;SDS011;6383;50.830;7.210;2023-03-20T15:44:41;5.32;;;1.80;;